Time;durP1;ratioP1;P1;durP2;ratioP2;P2;SDS_P1;SDS_P2;PMS_P1;PMS_P2;Temp;Humidity;BMP_temperature;BMP_pressure;BME280_temperature;BME280_humidity;BME280_pressure;Samples;Min_cycle;Max_cycle;Signal;HPM_P1;HPM_P2
2022/11/07 00:01:00;;;;;;;73.30;28.52;;;;;;;11.01;100.00;98029.00;4901075;29;20035;-77
2022/11/07 00:04:01;;;;;;;84.25;30.00;;;;;;;10.92;100.00;98002.72;4911179;29;20032;-79
2022/11/07 00:06:27;;;;;;;73.38;29.00;;;;;;;11.10;100.00;98033.84;4842708;29;20220;-78
2022/11/07 00:08:54;;;;;;;74.35;29.38;;;;;;;11.00;100.00;98021.03;4889186;29;20110;-78
2022/11/07 00:11:19;;;;;;;85.30;29.00;;;;;;;11.17;100.00;98035.19;4902318;29;20103;-78
2022/11/07 00:13:45;;;;;;;61.42;25.67;;;;;;;11.23;100.00;98036.66;4911081;29;20032;-79
2022/11/07 00:16:11;;;;;;;75.15;25.77;;;;;;;11.15;100.00;98028.22;4907626;29;20031;-77
2022/11/07 00:18:37;;;;;;;62.08;24.38;;;;;;;11.11;100.00;98027.50;4887690;29;20494;-78
2022/11/07 00:21:05;;;;;;;52.28;23.30;;;;;;;11.00;100.00;98024.59;4894286;29;20047;-78
2022/11/07 00:23:31;;;;;;;53.63;23.63;;;;;;;11.04;100.00;98028.84;4894306;29;20233;-77
2022/11/07 00:26:04;;;;;;;55.47;22.77;;;;;;;11.02;100.00;98028.03;4892065;29;20111;-78
2022/11/07 00:28:33;;;;;;;63.13;24.10;;;;;;;11.08;100.00;98027.69;4908246;29;20032;-76
2022/11/07 00:30:58;;;;;;;56.40;24.45;;;;;;;11.07;100.00;98023.31;4895005;29;20055;-79
2022/11/07 00:33:24;;;;;;;61.53;24.98;;;;;;;11.14;100.00;98027.34;4913261;29;20090;-78
2022/11/07 00:35:50;;;;;;;68.60;24.90;;;;;;;11.17;100.00;98032.53;4896097;29;20032;-78
2022/11/07 00:38:15;;;;;;;70.60;25.00;;;;;;;11.18;100.00;98026.22;4899240;29;20051;-78
2022/11/07 00:40:41;;;;;;;61.30;26.08;;;;;;;11.24;100.00;98022.34;4903483;29;20032;-78
2022/11/07 00:43:07;;;;;;;62.97;25.25;;;;;;;11.22;100.00;98019.75;4910413;29;20028;-79
2022/11/07 00:45:32;;;;;;;64.68;26.67;;;;;;;11.33;100.00;98029.84;4898186;29;20097;-77
2022/11/07 00:47:58;;;;;;;66.75;25.55;;;;;;;11.39;100.00;98016.09;4900715;29;20506;-77
2022/11/07 00:50:24;;;;;;;68.28;25.67;;;;;;;11.42;100.00;98026.63;4886678;29;20028;-78
2022/11/07 00:52:50;;;;;;;66.80;26.63;;;;;;;11.45;100.00;98026.44;4900604;29;20104;-79
2022/11/07 00:55:15;;;;;;;68.68;27.77;;;;;;;11.35;100.00;98009.22;4911977;29;20059;-77
2022/11/07 00:57:41;;;;;;;68.03;26.15;;;;;;;11.46;100.00;98017.47;4894864;29;20032;-77
2022/11/07 01:00:07;;;;;;;77.20;27.50;;;;;;;11.51;100.00;98026.09;4901319;29;20040;-77
2022/11/07 01:02:33;;;;;;;67.07;26.83;;;;;;;11.43;100.00;98023.88;4897130;29;20495;-77
2022/11/07 01:05:10;;;;;;;75.97;26.52;;;;;;;11.48;100.00;98026.28;4909738;29;20039;-79
2022/11/07 01:07:38;;;;;;;75.55;29.00;;;;;;;11.52;100.00;98026.97;4908079;29;20039;-78
2022/11/07 01:10:05;;;;;;;79.65;28.17;;;;;;;11.52;100.00;98032.31;4903707;29;20043;-77
2022/11/07 01:12:32;;;;;;;75.78;26.52;;;;;;;11.48;100.00;98020.03;4892295;29;20066;-78
2022/11/07 01:14:58;;;;;;;75.47;27.27;;;;;;;11.49;100.00;98019.09;4910652;29;20483;-78
2022/11/07 01:17:24;;;;;;;68.00;26.92;;;;;;;11.49;100.00;98016.44;4897111;29;20118;-77
2022/11/07 01:19:49;;;;;;;62.72;25.75;;;;;;;11.52;100.00;98010.91;4902034;29;20039;-78
2022/11/07 01:22:15;;;;;;;65.20;27.23;;;;;;;11.59;100.00;98029.22;4935944;29;20032;-77
2022/11/07 01:24:40;;;;;;;66.45;27.70;;;;;;;11.62;100.00;98021.00;4891346;29;20476;-77
2022/11/07 01:27:06;;;;;;;68.78;24.55;;;;;;;11.55;100.00;97994.63;4894448;29;20050;-78
2022/11/07 01:29:31;;;;;;;61.95;23.48;;;;;;;11.52;100.00;98001.03;4914808;29;20551;-78
2022/11/07 01:31:58;;;;;;;60.05;24.40;;;;;;;11.54;100.00;97996.44;4900002;29;20440;-77
2022/11/07 01:34:24;;;;;;;55.92;23.55;;;;;;;11.65;100.00;98001.19;4895041;29;20051;-77
2022/11/07 01:36:52;;;;;;;49.95;23.20;;;;;;;11.61;100.00;97999.63;4904763;29;20040;-78
2022/11/07 01:39:18;;;;;;;59.45;23.15;;;;;;;11.62;100.00;97990.66;4907833;29;20122;-77
2022/11/07 01:41:43;;;;;;;51.83;23.33;;;;;;;11.50;100.00;97967.28;4901608;29;20560;-78
2022/11/07 01:44:09;;;;;;;55.83;22.95;;;;;;;11.68;100.00;97992.97;4894367;29;20577;-76
2022/11/07 01:46:37;;;;;;;56.30;23.42;;;;;;;11.62;100.00;97990.66;4905488;29;20036;-76
2022/11/07 01:49:12;;;;;;;62.95;23.88;;;;;;;11.69;100.00;97994.72;4902247;29;20119;-78
2022/11/07 01:51:46;;;;;;;51.30;22.73;;;;;;;11.71;100.00;97991.00;4924701;29;20038;-77
2022/11/07 01:54:12;;;;;;;52.58;23.00;;;;;;;11.63;100.00;97979.00;4901988;29;20130;-77
2022/11/07 01:56:41;;;;;;;56.25;22.70;;;;;;;11.60;100.00;97973.78;4897007;29;20028;-76
2022/11/07 01:59:08;;;;;;;56.83;22.65;;;;;;;11.53;100.00;97965.28;4902155;29;20032;-76
2022/11/07 02:01:33;;;;;;;57.20;22.95;;;;;;;11.51;100.00;97961.81;4901259;29;20072;-78
2022/11/07 02:03:59;;;;;;;55.17;22.92;;;;;;;11.57;100.00;97947.19;4889775;29;20484;-77
2022/11/07 02:06:45;;;;;;;58.17;23.10;;;;;;;11.62;100.00;97953.13;4895941;29;20111;-77
2022/11/07 02:09:11;;;;;;;55.17;22.38;;;;;;;11.69;100.00;97949.16;4896222;29;20031;-77
2022/11/07 02:11:36;;;;;;;54.13;22.75;;;;;;;11.68;100.00;97942.94;4892010;29;20050;-78
2022/11/07 02:14:02;;;;;;;57.38;23.42;;;;;;;11.66;100.00;97935.94;4907673;29;20499;-77
2022/11/07 02:16:28;;;;;;;54.90;22.27;;;;;;;11.61;100.00;97946.91;4901180;29;20028;-77
2022/11/07 02:18:54;;;;;;;53.97;22.55;;;;;;;11.63;100.00;97949.53;4907282;29;20035;-77
2022/11/07 02:21:33;;;;;;;63.50;24.48;;;;;;;11.64;100.00;97957.44;4904681;29;20036;-78
2022/11/07 02:24:05;;;;;;;64.40;23.67;;;;;;;11.58;100.00;97943.56;4899935;29;20403;-77
2022/11/07 02:26:32;;;;;;;57.10;23.98;;;;;;;11.55;100.00;97958.00;4909130;29;20551;-77
2022/11/07 02:28:58;;;;;;;64.47;24.55;;;;;;;11.57;100.00;97963.25;4894322;29;20110;-77
2022/11/07 02:31:23;;;;;;;75.20;26.38;;;;;;;11.58;100.00;97960.50;4889082;29;20118;-76
2022/11/07 02:33:49;;;;;;;64.57;25.17;;;;;;;11.70;100.00;97969.66;4895813;29;20559;-78
2022/11/07 02:36:17;;;;;;;72.78;26.25;;;;;;;11.54;100.00;97955.41;4889964;29;20475;-78
2022/11/07 02:38:43;;;;;;;72.30;26.00;;;;;;;11.54;100.00;97966.09;4891289;29;20032;-77
2022/11/07 02:41:12;;;;;;;92.88;28.02;;;;;;;11.56;100.00;97970.44;4888948;29;20034;-78
2022/11/07 02:43:41;;;;;;;83.20;27.75;;;;;;;11.56;100.00;97982.97;4897550;29;20088;-77
2022/11/07 02:46:09;;;;;;;85.28;27.75;;;;;;;11.43;100.00;97975.66;4891455;29;20043;-78
2022/11/07 02:48:47;;;;;;;78.60;27.45;;;;;;;11.50;100.00;97994.94;4907893;29;20036;-78
2022/11/07 02:51:13;;;;;;;89.72;26.15;;;;;;;11.43;100.00;97997.09;4901929;29;20438;-78
2022/11/07 02:53:38;;;;;;;63.28;24.65;;;;;;;11.52;100.00;98000.19;4883815;29;20036;-77
2022/11/07 02:56:05;;;;;;;84.95;26.15;;;;;;;11.57;100.00;97998.94;4887861;29;20035;-77
2022/11/07 02:58:30;;;;;;;73.70;27.35;;;;;;;11.57;100.00;98003.44;4909147;29;20032;-77
2022/11/07 03:01:01;;;;;;;75.13;25.33;;;;;;;11.49;100.00;97997.69;4886622;29;20374;-77
2022/11/07 03:03:29;;;;;;;57.88;23.85;;;;;;;11.57;100.00;98011.47;4886900;29;20468;-77
2022/11/07 03:05:55;;;;;;;54.03;22.90;;;;;;;11.60;100.00;98013.97;4894327;29;20114;-78
2022/11/07 03:08:21;;;;;;;58.67;23.02;;;;;;;11.64;100.00;98010.16;4894084;29;20028;-78
2022/11/07 03:10:46;;;;;;;54.85;22.45;;;;;;;11.63;100.00;98011.97;4891613;29;20058;-78
2022/11/07 03:13:12;;;;;;;62.15;23.85;;;;;;;11.57;100.00;98006.13;4896168;29;20399;-77
2022/11/07 03:15:37;;;;;;;53.28;22.67;;;;;;;11.64;100.00;98012.84;4909546;29;20024;-77
2022/11/07 03:18:03;;;;;;;64.40;23.48;;;;;;;11.65;100.00;98025.31;4889575;29;20050;-77
2022/11/07 03:20:28;;;;;;;60.15;23.02;;;;;;;11.62;100.00;98020.13;4890081;29;20487;-78
2022/11/07 03:22:57;;;;;;;55.05;24.50;;;;;;;11.60;100.00;98009.47;4926302;29;20484;-77
2022/11/07 03:25:22;;;;;;;62.55;25.27;;;;;;;11.60;100.00;98009.47;4901554;29;20059;-77
2022/11/07 03:27:48;;;;;;;61.22;23.35;;;;;;;11.63;100.00;98005.78;4885870;29;20044;-77
2022/11/07 03:30:14;;;;;;;65.10;23.92;;;;;;;11.68;100.00;98006.38;4888818;29;20035;-77
2022/11/07 03:32:39;;;;;;;60.45;25.15;;;;;;;11.63;100.00;97995.91;4906892;29;20035;-78
2022/11/07 03:35:06;;;;;;;53.63;22.17;;;;;;;11.69;100.00;98005.44;4909267;29;20044;-78
2022/11/07 03:37:31;;;;;;;50.95;21.48;;;;;;;11.64;100.00;97996.78;4893597;29;20035;-77
2022/11/07 03:39:57;;;;;;;42.97;20.50;;;;;;;11.59;100.00;97993.50;4906265;29;20123;-78
2022/11/07 03:42:22;;;;;;;55.70;22.02;;;;;;;11.58;100.00;97991.78;4906025;29;20054;-77
2022/11/07 03:44:48;;;;;;;55.42;21.45;;;;;;;11.53;100.00;97986.72;4891404;29;20049;-78
2022/11/07 03:47:13;;;;;;;55.33;22.75;;;;;;;11.46;100.00;97979.09;4912360;29;20039;-78
2022/11/07 03:49:39;;;;;;;57.58;22.48;;;;;;;11.47;100.00;97989.75;4890064;29;20036;-77
2022/11/07 03:52:05;;;;;;;64.60;23.30;;;;;;;11.42;100.00;97990.00;4882097;29;20036;-78
2022/11/07 03:54:30;;;;;;;61.63;23.25;;;;;;;11.45;100.00;97997.00;4882299;29;20463;-76
2022/11/07 03:56:56;;;;;;;61.55;22.73;;;;;;;11.44;100.00;97990.75;4899842;29;20043;-77
2022/11/07 03:59:21;;;;;;;66.05;23.38;;;;;;;11.36;100.00;97986.81;4903507;29;20127;-77
2022/11/07 04:01:47;;;;;;;70.88;23.60;;;;;;;11.39;100.00;98006.25;4897814;29;20110;-78
2022/11/07 04:04:13;;;;;;;66.40;23.88;;;;;;;11.44;100.00;98004.16;4905804;29;20028;-77
2022/11/07 04:06:38;;;;;;;58.17;21.95;;;;;;;11.48;100.00;98012.00;4897515;29;20032;-77
2022/11/07 04:09:04;;;;;;;65.63;23.60;;;;;;;11.48;100.00;98010.19;4905889;29;20448;-78
2022/11/07 04:19:42;;;;;;;59.00;22.98;;;;;;;11.52;100.00;98024.28;4919755;29;20115;-77
2022/11/07 04:22:07;;;;;;;62.13;22.67;;;;;;;11.53;100.00;98013.50;4890028;29;20127;-77
2022/11/07 04:24:33;;;;;;;60.38;24.58;;;;;;;11.60;100.00;98020.19;4888412;29;20483;-77
2022/11/07 04:29:42;;;;;;;63.30;24.40;;;;;;;11.61;100.00;98029.09;4900686;29;20090;-78
2022/11/07 04:32:08;;;;;;;60.60;24.55;;;;;;;11.62;100.00;98038.88;4913293;29;20024;-77
2022/11/07 04:34:33;;;;;;;66.32;25.70;;;;;;;11.67;100.00;98037.66;4911619;29;20523;-77
2022/11/07 04:36:59;;;;;;;70.65;26.08;;;;;;;11.63;100.00;98043.31;4916471;29;20032;-77
2022/11/07 04:39:24;;;;;;;78.05;27.52;;;;;;;11.56;100.00;98045.47;4909055;29;20066;-78
2022/11/07 04:41:50;;;;;;;64.60;25.75;;;;;;;11.59;100.00;98049.78;4885700;29;20036;-79
2022/11/07 04:44:15;;;;;;;68.47;23.98;;;;;;;11.64;100.00;98053.91;4905480;29;20031;-77
2022/11/07 04:46:41;;;;;;;75.15;27.08;;;;;;;11.60;100.00;98048.81;4881896;29;20020;-78
2022/11/07 04:49:07;;;;;;;64.70;25.48;;;;;;;11.69;100.00;98061.69;4890692;29;20507;-78
2022/11/07 04:51:32;;;;;;;56.47;23.25;;;;;;;11.71;100.00;98057.13;4898235;29;20027;-79
2022/11/07 04:54:09;;;;;;;63.88;23.55;;;;;;;11.73;100.00;98047.19;4919964;29;20455;-79
2022/11/07 04:56:35;;;;;;;57.58;22.30;;;;;;;11.66;100.00;98029.72;4903481;29;20027;-78
2022/11/07 04:59:00;;;;;;;64.50;23.30;;;;;;;11.62;100.00;98034.41;4917040;29;20467;-78
2022/11/07 05:01:26;;;;;;;61.75;23.77;;;;;;;11.59;100.00;98034.56;4896119;29;20028;-78
2022/11/07 05:03:51;;;;;;;65.00;22.63;;;;;;;11.51;100.00;98020.75;4904764;29;20024;-80
2022/11/07 05:06:18;;;;;;;59.15;22.75;;;;;;;11.57;100.00;98035.59;4904792;29;20059;-78
2022/11/07 05:08:46;;;;;;;57.65;23.05;;;;;;;11.51;100.00;98023.41;4903042;29;20411;-78
2022/11/07 05:12:02;;;;;;;66.32;24.67;;;;;;;11.54;100.00;98038.44;4886941;29;20088;-80
2022/11/07 05:14:29;;;;;;;65.57;24.63;;;;;;;11.51;100.00;98038.63;4925884;29;20053;-77
2022/11/07 05:16:55;;;;;;;71.03;26.88;;;;;;;11.52;100.00;98059.13;4897941;29;20027;-78
2022/11/07 05:19:21;;;;;;;78.93;27.95;;;;;;;11.44;100.00;98057.72;4894431;29;20036;-78
2022/11/07 05:21:46;;;;;;;79.32;28.35;;;;;;;11.49;100.00;98067.31;4899873;29;20027;-71
2022/11/07 05:24:13;;;;;;;66.30;27.05;;;;;;;11.54;100.00;98062.56;4899676;29;20506;-72
2022/11/07 05:26:39;;;;;;;79.03;27.98;;;;;;;11.63;100.00;98070.09;4899777;29;20028;-72
2022/11/07 05:29:06;;;;;;;79.75;26.80;;;;;;;11.68;100.00;98076.91;4899690;29;20126;-72
2022/11/07 05:31:32;;;;;;;72.93;27.13;;;;;;;11.68;100.00;98084.09;4899808;29;20096;-73
2022/11/07 05:33:57;;;;;;;80.57;28.30;;;;;;;11.71;100.00;98082.13;4906911;29;20051;-73
2022/11/07 05:36:23;;;;;;;78.93;29.00;;;;;;;11.70;100.00;98090.25;4934917;29;20039;-74
2022/11/07 05:38:52;;;;;;;86.32;29.45;;;;;;;11.66;100.00;98092.19;4919834;29;20440;-77
2022/11/07 05:41:19;;;;;;;86.05;31.70;;;;;;;11.74;100.00;98102.53;4918050;29;20472;-72
2022/11/07 05:43:45;;;;;;;87.35;31.20;;;;;;;11.66;100.00;98099.41;4918687;29;20031;-72
2022/11/07 05:46:11;;;;;;;89.95;30.55;;;;;;;11.69;100.00;98107.25;4935209;29;20062;-72
2022/11/07 05:48:37;;;;;;;84.53;30.23;;;;;;;11.77;100.00;98108.56;4917872;29;20104;-72
2022/11/07 05:51:07;;;;;;;80.78;29.00;;;;;;;11.86;100.00;98112.53;4918409;29;20050;-73
2022/11/07 05:53:33;;;;;;;70.65;27.15;;;;;;;11.82;100.00;98101.13;4898663;29;20032;-72
2022/11/07 05:55:59;;;;;;;66.60;24.77;;;;;;;11.82;100.00;98094.88;4899307;29;20032;-73
2022/11/07 05:58:24;;;;;;;60.05;24.90;;;;;;;11.84;100.00;98096.53;4883271;29;20036;-72
2022/11/07 06:00:50;;;;;;;68.30;24.98;;;;;;;11.88;100.00;98102.56;4915831;29;20038;-73
2022/11/07 06:03:18;;;;;;;64.63;25.35;;;;;;;11.91;100.00;98108.63;4915907;29;20030;-73
2022/11/07 06:05:44;;;;;;;59.95;24.92;;;;;;;11.97;100.00;98110.06;4898969;29;20059;-73
2022/11/07 06:08:11;;;;;;;57.03;24.90;;;;;;;12.01;100.00;98106.28;4899053;29;20098;-73
2022/11/07 06:10:38;;;;;;;66.53;24.98;;;;;;;12.06;100.00;98108.69;4898876;29;20035;-73
2022/11/07 06:13:06;;;;;;;65.30;24.90;;;;;;;12.11;100.00;98104.78;4899126;29;20036;-72
2022/11/07 06:15:34;;;;;;;63.25;25.88;;;;;;;12.09;100.00;98100.47;4915509;29;20059;-73
2022/11/07 06:18:05;;;;;;;63.80;24.77;;;;;;;12.11;100.00;98115.50;4898776;29;20478;-73
2022/11/07 06:20:32;;;;;;;62.45;24.40;;;;;;;12.02;100.00;98097.28;4915573;29;20111;-71
2022/11/07 06:23:02;;;;;;;63.33;24.80;;;;;;;12.04;100.00;98097.19;4915559;29;20119;-72
2022/11/07 06:25:28;;;;;;;76.25;27.27;;;;;;;12.01;100.00;98108.94;4898072;29;20110;-73
2022/11/07 06:28:03;;;;;;;78.53;28.42;;;;;;;12.05;100.00;98112.31;4915472;29;20035;-72
2022/11/07 06:30:28;;;;;;;68.60;26.95;;;;;;;12.10;100.00;98110.22;4898157;29;20032;-71
2022/11/07 06:32:54;;;;;;;69.15;26.40;;;;;;;12.05;100.00;98097.09;4915597;29;20035;-73
2022/11/07 06:35:20;;;;;;;66.05;25.95;;;;;;;12.11;100.00;98106.59;4915373;29;20052;-73
2022/11/07 06:37:45;;;;;;;67.28;27.13;;;;;;;12.08;100.00;98110.34;4898292;29;20036;-72
2022/11/07 06:40:11;;;;;;;74.68;28.42;;;;;;;12.10;100.00;98108.41;4915462;29;20043;-72
2022/11/07 06:42:37;;;;;;;72.63;30.30;;;;;;;12.15;100.00;98114.34;4899777;29;20423;-73
2022/11/07 06:45:03;;;;;;;67.10;28.20;;;;;;;12.10;100.00;98111.09;4917348;29;20036;-72
2022/11/07 06:47:28;;;;;;;68.32;25.75;;;;;;;12.11;100.00;98118.19;4933877;29;20039;-71
2022/11/07 06:49:54;;;;;;;65.32;27.33;;;;;;;12.20;100.00;98116.78;4934155;29;20032;-73
2022/11/07 06:52:19;;;;;;;68.47;27.67;;;;;;;12.24;100.00;98119.16;4916853;29;20028;-72
2022/11/07 06:54:45;;;;;;;67.05;28.30;;;;;;;12.28;100.00;98118.03;4916937;29;20031;-73
2022/11/07 06:57:10;;;;;;;73.78;30.20;;;;;;;12.17;100.00;98115.16;4916999;29;20027;-71
2022/11/07 06:59:36;;;;;;;64.25;28.00;;;;;;;12.18;100.00;98114.16;4917055;29;20063;-73
2022/11/07 07:02:01;;;;;;;61.65;27.50;;;;;;;12.29;100.00;98116.22;4934092;29;20028;-73
2022/11/07 07:04:27;;;;;;;71.03;28.48;;;;;;;12.34;100.00;98114.13;4899301;29;20064;-72
2022/11/07 07:06:53;;;;;;;63.60;27.15;;;;;;;12.40;100.00;98109.25;4876056;29;20067;-73
2022/11/07 07:09:18;;;;;;;65.53;28.55;;;;;;;12.38;100.00;98107.63;4893806;29;20666;-73
2022/11/07 07:11:44;;;;;;;66.97;28.75;;;;;;;12.41;100.00;98105.63;4894988;29;20083;-72
2022/11/07 07:14:10;;;;;;;58.20;25.90;;;;;;;12.48;100.00;98109.69;4895460;29;20404;-72
2022/11/07 07:16:36;;;;;;;60.90;27.02;;;;;;;12.46;100.00;98108.00;4896659;29;20377;-72
2022/11/07 07:19:02;;;;;;;66.00;27.85;;;;;;;12.58;100.00;98101.91;4914592;29;20034;-72
2022/11/07 07:21:28;;;;;;;64.63;27.95;;;;;;;12.59;100.00;98098.28;4922897;29;20038;-72
2022/11/07 07:23:53;;;;;;;62.05;27.42;;;;;;;12.63;100.00;98094.44;4900923;29;20504;-72
2022/11/07 07:26:19;;;;;;;70.57;28.50;;;;;;;12.72;100.00;98107.31;4933676;29;20028;-72
2022/11/07 07:28:44;;;;;;;69.78;28.38;;;;;;;12.66;100.00;98093.41;4933374;29;20043;-72
2022/11/07 07:31:13;;;;;;;75.43;28.08;;;;;;;12.71;100.00;98104.69;4916204;29;20035;-71
2022/11/07 07:33:42;;;;;;;72.75;29.10;;;;;;;12.74;100.00;98110.75;4932688;29;20082;-71
2022/11/07 07:36:08;;;;;;;72.75;28.50;;;;;;;12.81;100.00;98108.56;4900068;29;20106;-71
2022/11/07 07:38:34;;;;;;;77.57;30.27;;;;;;;12.86;100.00;98119.84;4916263;29;20035;-71
2022/11/07 07:41:00;;;;;;;71.65;28.30;;;;;;;12.84;100.00;98113.72;4900652;29;20027;-72
2022/11/07 07:43:26;;;;;;;68.15;28.00;;;;;;;12.93;100.00;98118.53;4885458;29;20032;-72
2022/11/07 07:45:52;;;;;;;79.13;29.65;;;;;;;12.99;100.00;98112.78;4897417;29;20047;-72
2022/11/07 07:48:18;;;;;;;75.47;27.98;;;;;;;12.98;100.00;98103.84;4897703;29;20032;-71
2022/11/07 07:50:48;;;;;;;73.82;27.92;;;;;;;13.01;100.00;98089.41;4914327;29;20040;-72
2022/11/07 07:53:14;;;;;;;79.20;30.33;;;;;;;13.00;100.00;98109.16;4911229;29;20122;-71
2022/11/07 07:55:40;;;;;;;70.53;29.45;;;;;;;12.95;100.00;98103.22;4916035;29;20122;-72
2022/11/07 07:58:05;;;;;;;70.00;31.08;;;;;;;12.91;100.00;98098.97;4933276;29;20108;-73
2022/11/07 08:00:31;;;;;;;80.10;33.88;;;;;;;12.82;100.00;98105.78;4933250;29;20032;-73
2022/11/07 08:03:04;;;;;;;91.35;34.00;;;;;;;12.88;100.00;98107.22;4933072;29;20031;-74
2022/11/07 08:05:30;;;;;;;183.63;38.10;;;;;;;12.94;100.00;98115.78;4916300;29;20467;-74
2022/11/07 08:07:55;;;;;;;93.82;34.17;;;;;;;13.00;100.00;98103.78;4916006;29;20096;-72
2022/11/07 08:10:21;;;;;;;90.60;33.08;;;;;;;13.05;100.00;98109.72;4916257;29;20058;-72
2022/11/07 08:12:48;;;;;;;88.45;35.17;;;;;;;13.04;100.00;98111.53;4900257;29;20119;-71
2022/11/07 08:15:15;;;;;;;91.00;37.00;;;;;;;12.97;100.00;98099.47;4916462;29;20024;-71
2022/11/07 08:17:41;;;;;;;72.13;29.13;;;;;;;13.05;100.00;98105.19;4907656;29;20515;-72
2022/11/07 08:20:08;;;;;;;74.88;26.52;;;;;;;13.13;100.00;98102.09;4914289;29;20036;-73
2022/11/07 08:22:35;;;;;;;66.40;27.98;;;;;;;13.26;100.00;98102.16;4914152;29;20036;-71
2022/11/07 08:25:00;;;;;;;64.65;28.20;;;;;;;13.38;100.00;98096.00;4915949;29;20456;-72
2022/11/07 08:27:26;;;;;;;66.65;28.42;;;;;;;13.39;100.00;98087.84;4900744;29;20032;-71
2022/11/07 08:29:52;;;;;;;89.72;38.25;;;;;;;13.35;100.00;98080.09;4900681;29;20032;-72
2022/11/07 08:32:17;;;;;;;79.50;30.85;;;;;;;13.25;100.00;98082.50;4917868;29;20028;-72
2022/11/07 08:34:43;;;;;;;77.10;29.35;;;;;;;13.45;100.00;98087.44;4908622;29;20550;-72
2022/11/07 08:37:08;;;;;;;71.00;29.23;;;;;;;13.51;100.00;98088.84;4936760;29;20399;-71
2022/11/07 08:39:34;;;;;;;67.13;29.02;;;;;;;13.63;100.00;98084.53;4919605;29;21289;-71
2022/11/07 08:41:59;;;;;;;63.47;28.85;;;;;;;13.58;100.00;98076.75;4919180;29;20035;-73
2022/11/07 08:44:25;;;;;;;62.72;28.75;;;;;;;13.71;100.00;98083.06;4919413;29;20027;-71
2022/11/07 08:46:54;;;;;;;92.68;30.30;;;;;;;13.74;100.00;98069.41;4935153;29;20054;-71
2022/11/07 08:49:19;;;;;;;67.82;28.35;;;;;;;13.67;100.00;98078.84;4884794;29;20088;-72
2022/11/07 08:51:45;;;;;;;69.45;31.45;;;;;;;13.72;100.00;98070.47;4917149;29;20110;-73
2022/11/07 08:54:11;;;;;;;71.05;28.33;;;;;;;13.71;100.00;98066.91;4900400;29;20027;-73
2022/11/07 08:56:37;;;;;;;70.68;28.92;;;;;;;13.90;100.00;98066.56;4900174;29;20504;-72
2022/11/07 08:59:02;;;;;;;66.35;30.10;;;;;;;13.94;100.00;98063.53;4917167;29;20168;-73
2022/11/07 09:01:28;;;;;;;70.30;30.45;;;;;;;13.98;100.00;98066.91;4916977;29;20038;-72
2022/11/07 09:03:53;;;;;;;55.90;27.08;;;;;;;14.11;100.00;98057.91;4900071;29;20508;-73
2022/11/07 09:06:19;;;;;;;68.43;30.45;;;;;;;14.14;100.00;98059.53;4917229;29;20028;-72
2022/11/07 09:08:44;;;;;;;68.45;32.05;;;;;;;14.09;100.00;98056.25;4917150;29;20034;-71
2022/11/07 09:11:11;;;;;;;73.68;31.00;;;;;;;14.18;100.00;98062.88;4899825;29;20020;-71
2022/11/07 09:13:36;;;;;;;68.45;33.67;;;;;;;14.22;100.00;98062.53;4917268;29;20024;-73
2022/11/07 09:16:03;;;;;;;77.05;34.45;;;;;;;14.33;100.00;98057.34;4899771;29;20030;-72
2022/11/07 09:18:29;;;;;;;69.88;33.15;;;;;;;14.49;100.00;98051.72;4899878;29;20028;-71
2022/11/07 09:20:56;;;;;;;58.47;30.65;;;;;;;14.72;100.00;98051.00;4916692;29;20032;-72
2022/11/07 09:23:27;;;;;;;56.60;29.67;;;;;;;14.95;100.00;98049.38;4916773;29;20096;-72
2022/11/07 09:25:53;;;;;;;57.10;28.13;;;;;;;15.08;100.00;98039.41;4899475;29;20032;-73
2022/11/07 09:28:19;;;;;;;47.63;25.95;;;;;;;15.04;100.00;98035.25;4899785;29;20407;-73
2022/11/07 09:30:44;;;;;;;44.72;22.55;;;;;;;14.64;100.00;98021.06;4918077;29;20031;-72
2022/11/07 09:33:10;;;;;;;49.08;25.15;;;;;;;14.74;100.00;98040.09;4918052;29;20043;-72
2022/11/07 09:35:36;;;;;;;57.88;26.67;;;;;;;14.81;100.00;98026.09;4934900;29;20058;-71
2022/11/07 09:38:01;;;;;;;91.88;32.00;;;;;;;14.92;100.00;98026.19;4935237;29;20028;-73
2022/11/07 09:40:40;;;;;;;54.30;26.50;;;;;;;15.01;100.00;98030.91;4935309;29;20031;-73
2022/11/07 09:43:27;;;;;;;56.35;25.70;;;;;;;15.11;100.00;98017.63;4918186;29;20059;-72
2022/11/07 09:46:37;;;;;;;51.90;24.65;;;;;;;15.20;100.00;98014.25;4935313;29;20036;-72
2022/11/07 09:49:13;;;;;;;74.78;25.98;;;;;;;15.20;100.00;98006.19;4902285;29;20039;-71
2022/11/07 09:51:41;;;;;;;79.93;25.55;;;;;;;15.29;100.00;97994.72;4910240;29;20375;-71
2022/11/07 09:54:14;;;;;;;65.25;23.55;;;;;;;15.57;100.00;97993.56;4899154;29;20437;-72
2022/11/07 09:56:42;;;;;;;40.97;20.00;;;;;;;15.27;100.00;97985.03;4915074;29;20027;-72
2022/11/07 09:59:18;;;;;;;37.10;21.08;;;;;;;14.94;100.00;97988.38;4917843;29;20062;-72
2022/11/07 10:01:43;;;;;;;52.42;21.70;;;;;;;14.59;100.00;97966.66;4902005;29;20034;-72
2022/11/07 10:04:16;;;;;;;40.58;20.95;;;;;;;14.62;100.00;97978.06;4902057;29;20028;-71
2022/11/07 10:06:58;;;;;;;42.50;21.05;;;;;;;15.11;100.00;97970.00;4917480;29;20155;-72
2022/11/07 10:09:48;;;;;;;36.25;20.65;;;;;;;15.45;100.00;97973.75;4915553;29;20031;-72
2022/11/07 10:12:20;;;;;;;48.80;21.95;;;;;;;15.65;100.00;97970.47;4915712;29;20028;-72
2022/11/07 10:14:57;;;;;;;52.75;23.90;;;;;;;15.44;100.00;97955.84;4915909;29;20063;-72
2022/11/07 10:17:41;;;;;;;41.75;21.45;;;;;;;15.72;100.00;97960.03;4920952;29;20114;-72
2022/11/07 10:20:44;;;;;;;41.20;22.08;;;;;;;15.83;100.00;97957.41;4906714;29;20036;-71
2022/11/07 10:23:38;;;;;;;36.95;20.05;;;;;;;16.07;100.00;97949.25;4898646;29;20028;-71
2022/11/07 10:26:09;;;;;;;38.40;19.10;;;;;;;16.48;100.00;97951.41;4911583;29;20455;-72
2022/11/07 10:28:47;;;;;;;37.13;20.17;;;;;;;16.70;100.00;97943.34;4899049;29;20115;-72
2022/11/07 10:31:13;;;;;;;38.83;19.67;;;;;;;16.80;100.00;97933.50;4912614;29;20032;-72
2022/11/07 10:33:52;;;;;;;38.60;20.67;;;;;;;16.48;100.00;97927.09;4917353;29;20052;-72
2022/11/07 10:36:30;;;;;;;36.28;20.35;;;;;;;16.16;100.00;97924.25;4901556;29;20030;-72
2022/11/07 10:38:55;;;;;;;39.00;20.35;;;;;;;15.88;100.00;97927.38;4884959;29;20039;-72
2022/11/07 10:41:23;;;;;;;40.25;21.08;;;;;;;15.43;100.00;97916.41;4898108;29;20491;-72
2022/11/07 10:43:52;;;;;;;42.75;20.60;;;;;;;15.83;100.00;97922.34;4915421;29;20043;-72
2022/11/07 10:46:21;;;;;;;35.90;20.20;;;;;;;16.22;100.00;97921.06;4898038;29;20032;-72
2022/11/07 10:48:55;;;;;;;45.80;20.33;;;;;;;16.68;100.00;97921.84;4898204;29;20032;-72
2022/11/07 10:51:40;;;;;;;42.10;20.45;;;;;;;16.98;100.00;97914.97;4898270;29;20064;-71
2022/11/07 10:54:06;;;;;;;37.85;19.23;;;;;;;17.12;100.00;97903.88;4898222;29;20475;-71
2022/11/07 10:56:47;;;;;;;37.22;19.67;;;;;;;17.20;99.27;97904.94;4898048;29;20051;-72
2022/11/07 10:59:22;;;;;;;46.30;20.08;;;;;;;17.33;97.94;97896.66;4882463;29;20556;-72
2022/11/07 11:01:53;;;;;;;37.25;20.08;;;;;;;17.58;95.88;97893.66;4898170;29;20024;-72
2022/11/07 11:04:37;;;;;;;38.05;19.92;;;;;;;17.61;95.70;97893.41;4898311;29;20107;-73
2022/11/07 11:07:05;;;;;;;36.10;18.80;;;;;;;17.92;93.05;97886.22;4882311;29;20472;-72
2022/11/07 11:09:35;;;;;;;33.30;18.27;;;;;;;17.90;92.68;97876.53;4882574;29;20039;-72
2022/11/07 11:12:12;;;;;;;31.90;18.30;;;;;;;19.07;87.25;97892.22;4879888;29;20424;-71
2022/11/07 11:14:38;;;;;;;35.08;18.70;;;;;;;21.20;76.72;97889.00;4898374;29;20083;-72
2022/11/07 11:17:04;;;;;;;30.42;17.38;;;;;;;23.44;65.68;97876.38;4916805;29;20015;-72
2022/11/07 11:19:42;;;;;;;40.30;18.77;;;;;;;24.88;57.85;97850.00;4916833;29;20546;-72
2022/11/07 11:22:16;;;;;;;33.88;17.88;;;;;;;25.22;55.20;97831.38;4900840;29;20436;-72
2022/11/07 11:24:41;;;;;;;34.45;17.40;;;;;;;26.32;51.86;97833.66;4916282;29;20444;-72